createdAt,value
2022-10-20T00:00:33.442Z,100999.34
2022-10-20T00:02:59.998Z,100978.00
2022-10-20T00:05:26.557Z,100991.59
2022-10-20T00:07:53.058Z,100986.75
2022-10-20T00:10:19.646Z,100992.22
2022-10-20T00:12:46.211Z,100993.66
2022-10-20T00:15:12.963Z,101000.00
2022-10-20T00:17:39.912Z,101001.63
2022-10-20T00:20:06.828Z,101003.56
2022-10-20T00:22:33.827Z,101001.25
2022-10-20T00:25:00.737Z,101003.84
2022-10-20T00:27:27.301Z,101002.22
2022-10-20T00:29:53.870Z,101003.19
2022-10-20T00:32:20.449Z,100998.00
2022-10-20T00:34:47.030Z,100999.00
2022-10-20T00:37:13.581Z,101006.94
2022-10-20T00:39:40.121Z,100997.72
2022-10-20T00:42:06.632Z,100995.75
2022-10-20T00:44:52.012Z,100996.88
2022-10-20T00:47:38.968Z,100978.94
2022-10-20T00:50:10.381Z,100983.13
2022-10-20T00:52:37.935Z,100986.69
2022-10-20T00:55:05.412Z,100985.34
2022-10-20T00:57:33.016Z,100992.50
2022-10-20T01:00:00.085Z,100986.00
2022-10-20T01:02:26.947Z,100986.28
2022-10-20T01:04:53.942Z,100982.13
2022-10-20T01:07:20.498Z,100980.19
2022-10-20T01:09:47.881Z,100981.47
2022-10-20T01:12:22.719Z,100982.44
2022-10-20T01:14:58.453Z,100976.59
2022-10-20T01:17:25.002Z,100969.16
2022-10-20T01:20:10.292Z,100960.09
2022-10-20T01:22:55.690Z,100955.22
2022-10-20T01:25:22.275Z,100947.94
2022-10-20T01:27:50.821Z,100954.41
2022-10-20T01:30:18.532Z,100959.72
2022-10-20T01:33:04.279Z,100948.09
2022-10-20T01:35:40.076Z,100939.97
2022-10-20T01:38:11.539Z,100943.53
2022-10-20T01:40:42.360Z,100950.63
2022-10-20T01:43:10.659Z,100944.66
2022-10-20T01:45:38.382Z,100938.34
2022-10-20T01:48:07.038Z,100939.97
2022-10-20T01:50:34.676Z,100944.50
2022-10-20T01:53:02.006Z,100941.91
2022-10-20T01:55:28.639Z,100939.78
2022-10-20T01:58:13.819Z,100940.09
2022-10-20T02:00:40.850Z,100937.50
2022-10-20T02:03:07.360Z,100938.16
2022-10-20T02:05:52.728Z,100936.03
2022-10-20T02:08:30.121Z,100935.69
2022-10-20T02:10:59.021Z,100937.63
2022-10-20T02:13:26.275Z,100936.81
2022-10-20T02:15:54.218Z,100930.84
2022-10-20T02:18:24.348Z,100935.03
2022-10-20T02:20:52.248Z,100941.19
2022-10-20T02:23:18.957Z,100940.88
2022-10-20T02:25:46.990Z,100938.59
2022-10-20T02:28:14.944Z,100919.22
2022-10-20T02:30:41.959Z,100928.91
2022-10-20T02:33:08.750Z,100932.47
2022-10-20T02:35:35.330Z,100936.28
2022-10-20T02:38:07.123Z,100929.50
2022-10-20T02:40:34.305Z,100927.09
2022-10-20T02:43:00.988Z,100929.16
2022-10-20T02:45:27.685Z,100925.91
2022-10-20T02:47:54.280Z,100917.66
2022-10-20T02:50:20.839Z,100916.84
2022-10-20T02:52:47.434Z,100924.59
2022-10-20T02:55:14.057Z,100926.22
2022-10-20T02:57:40.722Z,100929.44
2022-10-20T03:00:07.604Z,100924.59
2022-10-20T03:02:34.152Z,100921.22
2022-10-20T03:05:00.716Z,100922.81
2022-10-20T03:07:27.251Z,100926.38
2022-10-20T03:09:53.815Z,100919.06
2022-10-20T03:12:20.363Z,100908.09
2022-10-20T03:14:46.985Z,100900.97
2022-10-20T03:17:13.540Z,100909.97
2022-10-20T03:19:41.857Z,100909.97
2022-10-20T03:22:08.528Z,100915.44
2022-10-20T03:24:35.058Z,100914.63
2022-10-20T03:27:03.765Z,100911.22
2022-10-20T03:29:30.336Z,100920.78
2022-10-20T03:31:56.926Z,100919.97
2022-10-20T03:34:23.495Z,100923.19
2022-10-20T03:36:50.055Z,100920.00
2022-10-20T03:39:16.629Z,100919.06
2022-10-20T03:41:43.180Z,100921.63
2022-10-20T03:44:10.307Z,100925.19
2022-10-20T03:46:36.957Z,100920.97
2022-10-20T03:49:03.903Z,100915.44
2022-10-20T03:51:30.451Z,100924.13
2022-10-20T03:53:56.973Z,100923.19
2022-10-20T03:56:23.665Z,100929.31
2022-10-20T03:58:50.270Z,100920.78
2022-10-20T04:01:17.900Z,100930.59
2022-10-20T04:03:47.431Z,100926.66
2022-10-20T04:06:14.380Z,100924.22
2022-10-20T04:08:41.094Z,100925.03
2022-10-20T04:11:07.806Z,100929.91
2022-10-20T04:13:34.355Z,100936.03
2022-10-20T04:16:00.932Z,100930.22
2022-10-20T04:18:27.524Z,100923.44
2022-10-20T04:20:54.055Z,100920.69
2022-10-20T04:23:20.608Z,100930.06
2022-10-20T04:25:48.574Z,100922.47
2022-10-20T04:28:15.745Z,100928.59
2022-10-20T04:30:42.797Z,100919.25
2022-10-20T04:33:09.785Z,100921.84
2022-10-20T04:35:36.408Z,100923.59
2022-10-20T04:38:03.048Z,100928.91
2022-10-20T04:40:29.598Z,100927.56
2022-10-20T04:42:56.199Z,100922.41
2022-10-20T04:45:22.727Z,100930.00
2022-10-20T04:47:49.280Z,100935.63
2022-10-20T04:50:16.121Z,100932.41
2022-10-20T04:52:42.642Z,100932.41
2022-10-20T04:55:09.401Z,100922.22
2022-10-20T04:57:36.499Z,100930.13
2022-10-20T05:00:04.310Z,100930.13
2022-10-20T05:02:31.112Z,100927.66
2022-10-20T05:04:57.629Z,100936.50
2022-10-20T05:07:24.175Z,100932.31
2022-10-20T05:09:50.754Z,100923.44
2022-10-20T05:12:17.315Z,100930.47
2022-10-20T05:14:43.851Z,100931.59
2022-10-20T05:17:10.375Z,100927.09
2022-10-20T05:19:36.945Z,100928.72
2022-10-20T05:22:03.505Z,100933.22
2022-10-20T05:24:30.365Z,100925.63
2022-10-20T05:27:34.534Z,100927.47
2022-10-20T05:30:03.057Z,100942.31
2022-10-20T05:32:30.776Z,100935.63
2022-10-20T05:34:57.283Z,100932.94
2022-10-20T05:37:27.127Z,100935.53
2022-10-20T05:39:53.773Z,100943.53
2022-10-20T05:42:20.324Z,100940.00
2022-10-20T05:44:47.295Z,100939.41
2022-10-20T05:47:13.832Z,100946.41
2022-10-20T05:49:40.367Z,100955.88
2022-10-20T05:52:07.454Z,100953.63
2022-10-20T05:54:34.464Z,100950.22
2022-10-20T05:57:01.006Z,100958.91
2022-10-20T05:59:27.580Z,100967.63
2022-10-20T06:01:54.124Z,100957.78
2022-10-20T06:04:23.883Z,100959.88
2022-10-20T06:06:51.466Z,100967.81
2022-10-20T06:09:19.454Z,100969.72
2022-10-20T06:11:46.116Z,100957.84
2022-10-20T06:14:12.717Z,100971.72
2022-10-20T06:16:39.325Z,100981.66
2022-10-20T06:19:07.264Z,100974.41
2022-10-20T06:21:39.447Z,100975.06
2022-10-20T06:24:06.454Z,100976.56
2022-10-20T06:26:34.022Z,100979.09
2022-10-20T06:29:04.291Z,100981.53
2022-10-20T06:31:35.630Z,100987.03
2022-10-20T06:34:04.560Z,100987.94
2022-10-20T06:36:31.146Z,100986.53
2022-10-20T06:38:58.570Z,100983.06
2022-10-20T06:41:25.946Z,100984.63
2022-10-20T06:43:58.089Z,100987.31
2022-10-20T06:46:25.187Z,100981.16
2022-10-20T06:48:56.294Z,100993.50
2022-10-20T06:51:25.314Z,100998.59
2022-10-20T06:53:51.884Z,100994.63
2022-10-20T06:56:20.048Z,100998.25
2022-10-20T06:58:48.033Z,100995.47
2022-10-20T07:01:16.326Z,100993.66
2022-10-20T07:03:43.735Z,101003.59
2022-10-20T07:06:12.704Z,101000.44
2022-10-20T07:08:39.275Z,101006.78
2022-10-20T07:11:08.743Z,101004.06
2022-10-20T07:13:35.918Z,101002.88
2022-10-20T07:16:03.051Z,101006.34
2022-10-20T07:18:30.667Z,101007.22
2022-10-20T07:20:59.292Z,101010.31
2022-10-20T07:23:26.814Z,101019.63
2022-10-20T07:25:59.879Z,101011.94
2022-10-20T07:28:26.809Z,101019.63
2022-10-20T07:30:53.357Z,101020.47
2022-10-20T07:33:19.919Z,101012.69
2022-10-20T07:35:48.448Z,101020.31
2022-10-20T07:38:15.246Z,101020.69
2022-10-20T07:40:42.118Z,101018.50
2022-10-20T07:43:08.640Z,101016.53
2022-10-20T07:45:35.192Z,101014.72
2022-10-20T07:48:04.963Z,101016.88
2022-10-20T07:50:31.861Z,101014.69
2022-10-20T07:52:58.452Z,101013.91
2022-10-20T07:55:38.014Z,101014.25
2022-10-20T07:58:05.793Z,101011.47
2022-10-20T08:00:32.421Z,101010.88
2022-10-20T08:02:59.032Z,101008.22
2022-10-20T08:05:25.703Z,101014.03
2022-10-20T08:07:52.374Z,101008.63
2022-10-20T08:10:19.541Z,101007.00
2022-10-20T08:12:46.066Z,101008.47
2022-10-20T08:15:12.685Z,101011.31
2022-10-20T08:17:39.220Z,101009.28
2022-10-20T08:20:09.853Z,101016.28
2022-10-20T08:22:36.622Z,101017.34
2022-10-20T08:25:03.535Z,101011.31
2022-10-20T08:27:30.928Z,101011.72
2022-10-20T08:30:06.308Z,101012.94
2022-10-20T08:32:44.026Z,101014.91
2022-10-20T08:35:10.585Z,101016.47
2022-10-20T08:37:37.636Z,101003.81
2022-10-20T08:40:04.828Z,101016.47
2022-10-20T08:42:35.487Z,101017.59
2022-10-20T08:45:02.029Z,101004.28
2022-10-20T08:47:35.609Z,101002.03
2022-10-20T08:50:06.473Z,100995.66
2022-10-20T08:52:33.198Z,100992.38
2022-10-20T08:54:59.919Z,100997.31
2022-10-20T08:57:51.025Z,100997.59
2022-10-20T09:00:20.136Z,100993.31
2022-10-20T09:02:48.111Z,101001.75
2022-10-20T09:05:18.360Z,100994.56
2022-10-20T09:07:49.818Z,100994.94
2022-10-20T09:10:16.459Z,100995.09
2022-10-20T09:12:44.349Z,100993.88
2022-10-20T09:15:12.072Z,100992.69
2022-10-20T09:17:40.341Z,100984.50
2022-10-20T09:20:12.582Z,100980.91
2022-10-20T09:22:39.339Z,100985.75
2022-10-20T09:25:06.123Z,100995.81
2022-10-20T09:27:34.615Z,100990.03
2022-10-20T09:30:34.344Z,100985.75
2022-10-20T09:33:01.511Z,100988.84
2022-10-20T09:35:33.070Z,100983.38
2022-10-20T09:38:13.952Z,100981.25
2022-10-20T09:40:46.303Z,100985.53
2022-10-20T09:43:17.044Z,100981.22
2022-10-20T09:45:54.826Z,100983.06
2022-10-20T09:48:29.331Z,100976.63
2022-10-20T09:50:56.932Z,100962.97
2022-10-20T09:53:26.974Z,100980.84
2022-10-20T09:55:53.799Z,100969.38
2022-10-20T09:58:29.476Z,100967.19
2022-10-20T10:01:01.739Z,100969.56
2022-10-20T10:03:28.644Z,100967.56
2022-10-20T10:05:56.732Z,100972.44
2022-10-20T10:08:25.426Z,100959.97
2022-10-20T10:11:18.336Z,100965.91
2022-10-20T10:13:46.056Z,100953.09
2022-10-20T10:16:15.332Z,100967.03
2022-10-20T10:18:48.325Z,100955.44
2022-10-20T10:21:17.584Z,100948.44
2022-10-20T10:23:52.546Z,100934.19
2022-10-20T10:26:37.497Z,100931.59
2022-10-20T10:29:04.248Z,100937.59
2022-10-20T10:31:32.633Z,100928.75
2022-10-20T10:34:08.273Z,100934.41
2022-10-20T10:36:35.566Z,100928.19
2022-10-20T10:39:04.172Z,100927.56
2022-10-20T10:41:30.811Z,100931.38
2022-10-20T10:44:03.678Z,100931.59
2022-10-20T10:46:37.595Z,100924.34
2022-10-20T10:49:23.162Z,100921.59
2022-10-20T10:52:07.856Z,100915.19
2022-10-20T10:54:34.384Z,100924.06
2022-10-20T10:57:12.537Z,100919.19
2022-10-20T10:59:41.937Z,100918.41
2022-10-20T11:02:27.314Z,100916.03
2022-10-20T11:04:57.014Z,100902.19
2022-10-20T11:07:35.505Z,100901.00
2022-10-20T11:10:17.909Z,100895.53
2022-10-20T11:13:06.599Z,100904.34
2022-10-20T11:15:44.269Z,100894.75
2022-10-20T11:18:13.711Z,100889.53
2022-10-20T11:20:59.048Z,100882.66
2022-10-20T11:23:48.661Z,100870.03
2022-10-20T11:26:24.266Z,100871.88
2022-10-20T11:28:55.456Z,100871.84
2022-10-20T11:31:54.723Z,100864.25
2022-10-20T11:34:21.256Z,100857.00
2022-10-20T11:36:51.978Z,100849.41
2022-10-20T11:39:34.236Z,100845.19
2022-10-20T11:42:15.740Z,100837.34
2022-10-20T11:44:44.507Z,100837.59
2022-10-20T11:47:13.575Z,100833.75
2022-10-20T11:49:40.751Z,100833.94
2022-10-20T11:52:07.328Z,100825.50
2022-10-20T11:55:09.769Z,100826.94
2022-10-20T11:57:49.070Z,100832.16
2022-10-20T12:00:21.363Z,100819.53
2022-10-20T12:02:58.654Z,100805.28
2022-10-20T12:05:36.393Z,100804.47
2022-10-20T12:08:30.500Z,100808.47
2022-10-20T12:11:03.393Z,100806.06
2022-10-20T12:13:32.953Z,100794.03
2022-10-20T12:15:59.531Z,100801.66
2022-10-20T12:18:36.937Z,100801.25
2022-10-20T12:21:08.085Z,100799.66
2022-10-20T12:23:47.039Z,100799.66
2022-10-20T12:26:35.075Z,100797.22
2022-10-20T12:29:03.453Z,100793.22
2022-10-20T12:31:51.475Z,100796.84
2022-10-20T12:34:23.898Z,100791.81
2022-10-20T12:36:50.474Z,100790.00
2022-10-20T12:39:21.407Z,100779.56
2022-10-20T12:41:57.273Z,100785.78
2022-10-20T12:44:24.494Z,100777.97
2022-10-20T12:46:59.459Z,100774.34
2022-10-20T12:49:31.249Z,100772.75
2022-10-20T12:51:58.964Z,100765.31
2022-10-20T12:54:31.674Z,100769.16
2022-10-20T12:56:59.481Z,100764.69
2022-10-20T12:59:29.006Z,100776.34
2022-10-20T13:02:11.052Z,100771.94
2022-10-20T13:04:58.053Z,100762.31
2022-10-20T13:07:45.015Z,100765.13
2022-10-20T13:10:26.942Z,100754.88
2022-10-20T13:12:54.129Z,100759.88
2022-10-20T13:15:22.072Z,100761.91
2022-10-20T13:18:12.955Z,100764.31
2022-10-20T13:20:39.516Z,100750.88
2022-10-20T13:23:09.523Z,100754.06
2022-10-20T13:25:43.581Z,100743.59
2022-10-20T13:28:13.248Z,100750.25
2022-10-20T13:30:58.173Z,100748.81
2022-10-20T13:33:38.992Z,100747.44
2022-10-20T13:36:29.537Z,100737.19
2022-10-20T13:39:00.671Z,100734.22
2022-10-20T13:41:34.109Z,100739.81
2022-10-20T13:44:15.994Z,100729.78
2022-10-20T13:46:53.017Z,100721.75
2022-10-20T13:49:19.560Z,100725.41
2022-10-20T13:51:51.921Z,100723.56
2022-10-20T13:54:22.653Z,100723.38
2022-10-20T13:56:52.771Z,100719.75
2022-10-20T14:01:52.077Z,100704.53
2022-10-20T14:04:29.658Z,100720.97
2022-10-20T14:07:10.705Z,100724.78
2022-10-20T14:09:39.545Z,100731.00
2022-10-20T14:12:11.147Z,100722.19
2022-10-20T14:14:43.147Z,100718.56
2022-10-20T14:17:17.083Z,100713.34
2022-10-20T14:19:46.087Z,100709.16
2022-10-20T14:22:13.577Z,100716.34
2022-10-20T14:24:42.364Z,100712.75
2022-10-20T14:27:14.220Z,100712.97
2022-10-20T14:29:40.811Z,100720.00
2022-10-20T14:32:07.580Z,100704.53
2022-10-20T14:34:35.920Z,100706.97
2022-10-20T14:37:02.908Z,100716.78
2022-10-20T14:39:35.228Z,100711.72
2022-10-20T14:42:03.247Z,100719.41
2022-10-20T14:44:31.706Z,100718.75
2022-10-20T14:47:00.103Z,100713.78
2022-10-20T14:49:31.461Z,100708.75
2022-10-20T14:52:02.761Z,100703.53
2022-10-20T14:54:37.029Z,100703.13
2022-10-20T14:57:09.743Z,100704.97
2022-10-20T14:59:38.844Z,100708.34
2022-10-20T15:02:10.005Z,100700.31
2022-10-20T15:04:37.719Z,100698.72
2022-10-20T15:07:21.191Z,100699.75
2022-10-20T15:09:51.943Z,100698.31
2022-10-20T15:12:31.960Z,100698.13
2022-10-20T15:15:18.909Z,100698.50
2022-10-20T15:17:47.224Z,100691.31
2022-10-20T15:20:34.787Z,100680.66
2022-10-20T15:23:03.454Z,100682.88
2022-10-20T15:25:31.644Z,100679.69
2022-10-20T15:27:58.925Z,100681.28
2022-10-20T15:30:26.135Z,100681.69
2022-10-20T15:32:53.414Z,100688.47
2022-10-20T15:35:22.464Z,100673.84
2022-10-20T15:37:49.985Z,100683.28
2022-10-20T15:40:16.885Z,100668.84
2022-10-20T15:42:43.455Z,100662.03
2022-10-20T15:45:37.500Z,100655.00
2022-10-20T15:48:04.167Z,100644.53
2022-10-20T15:50:31.078Z,100647.53
2022-10-20T15:52:57.713Z,100647.97
2022-10-20T15:55:26.304Z,100647.72
2022-10-20T15:57:53.686Z,100645.53
2022-10-20T16:00:21.268Z,100639.13
2022-10-20T16:02:48.930Z,100644.91
2022-10-20T16:05:16.599Z,100636.69
2022-10-20T16:07:43.171Z,100631.69
2022-10-20T16:10:10.483Z,100639.88
2022-10-20T16:12:40.833Z,100635.06
2022-10-20T16:15:08.209Z,100629.25
2022-10-20T16:17:35.389Z,100637.28
2022-10-20T16:20:02.217Z,100633.06
2022-10-20T16:22:29.519Z,100631.00
2022-10-20T16:24:56.300Z,100646.28
2022-10-20T16:27:23.023Z,100657.50
2022-10-20T16:29:52.711Z,100658.31
2022-10-20T16:32:19.253Z,100662.91
2022-10-20T16:34:45.816Z,100661.47
2022-10-20T16:37:12.410Z,100659.47
2022-10-20T16:39:38.949Z,100668.69
2022-10-20T16:42:05.573Z,100672.47
2022-10-20T16:44:32.302Z,100677.50
2022-10-20T16:46:58.876Z,100666.69
2022-10-20T16:49:25.483Z,100665.66
2022-10-20T16:51:52.124Z,100662.47
2022-10-20T16:54:18.764Z,100656.28
2022-10-20T16:56:49.091Z,100655.63
2022-10-20T16:59:15.654Z,100668.22
2022-10-20T17:01:42.295Z,100673.03
2022-10-20T17:04:10.763Z,100678.00
2022-10-20T17:06:37.364Z,100675.78
2022-10-20T17:09:04.071Z,100668.97
2022-10-20T17:11:31.491Z,100663.19
2022-10-20T17:13:58.922Z,100660.59
2022-10-20T17:16:30.173Z,100670.19
2022-10-20T17:18:57.416Z,100675.75
2022-10-20T17:21:24.102Z,100673.34
2022-10-20T17:23:50.669Z,100677.34
2022-10-20T17:26:19.076Z,100674.50
2022-10-20T17:28:45.705Z,100664.59
2022-10-20T17:31:14.144Z,100674.03
2022-10-20T17:33:41.033Z,100666.88
2022-10-20T17:36:07.934Z,100674.44
2022-10-20T17:38:34.763Z,100671.63
2022-10-20T17:41:08.943Z,100666.59
2022-10-20T17:43:35.618Z,100659.97
2022-10-20T17:46:03.434Z,100666.56
2022-10-20T17:48:29.990Z,100665.13
2022-10-20T17:51:03.947Z,100661.06
2022-10-20T17:53:31.528Z,100659.47
2022-10-20T17:56:02.531Z,100652.22
2022-10-20T17:58:29.375Z,100646.59
2022-10-20T18:00:57.088Z,100640.34
2022-10-20T18:03:23.858Z,100641.72
2022-10-20T18:05:50.505Z,100644.91
2022-10-20T18:08:17.089Z,100636.84
2022-10-20T18:10:44.152Z,100638.03
2022-10-20T18:13:11.061Z,100633.41
2022-10-20T18:15:43.865Z,100640.75
2022-10-20T18:18:10.416Z,100637.28
2022-10-20T18:20:37.011Z,100639.28
2022-10-20T18:23:03.966Z,100635.06
2022-10-20T18:25:30.619Z,100634.66
2022-10-20T18:27:57.225Z,100631.81
2022-10-20T18:30:23.766Z,100638.19
2022-10-20T18:32:50.336Z,100630.50
2022-10-20T18:35:16.994Z,100632.69
2022-10-20T18:37:44.931Z,100628.47
2022-10-20T18:40:11.573Z,100628.19
2022-10-20T18:42:39.109Z,100634.31
2022-10-20T18:45:07.170Z,100638.28
2022-10-20T18:47:33.791Z,100633.03
2022-10-20T18:50:00.352Z,100629.56
2022-10-20T18:52:26.890Z,100628.13
2022-10-20T18:54:53.584Z,100638.91
2022-10-20T18:57:20.157Z,100634.84
2022-10-20T18:59:49.019Z,100630.41
2022-10-20T19:02:15.655Z,100637.72
2022-10-20T19:04:42.243Z,100622.25
2022-10-20T19:07:08.833Z,100628.16
2022-10-20T19:09:35.521Z,100628.88
2022-10-20T19:12:03.603Z,100622.09
2022-10-20T19:14:32.249Z,100630.78
2022-10-20T19:17:00.121Z,100627.53
2022-10-20T19:19:26.732Z,100623.72
2022-10-20T19:21:53.274Z,100628.53
2022-10-20T19:24:24.107Z,100630.22
2022-10-20T19:26:57.533Z,100626.09
2022-10-20T19:29:29.017Z,100622.81
2022-10-20T19:31:57.443Z,100625.56
2022-10-20T19:34:25.462Z,100623.03
2022-10-20T19:36:52.484Z,100629.31
2022-10-20T19:39:20.618Z,100626.75
2022-10-20T19:41:47.362Z,100630.69
2022-10-20T19:44:15.510Z,100632.78
2022-10-20T19:46:42.688Z,100633.97
2022-10-20T19:49:09.296Z,100627.88
2022-10-20T19:51:35.896Z,100623.38
2022-10-20T19:54:02.467Z,100625.38
2022-10-20T19:56:29.015Z,100622.16
2022-10-20T19:58:55.658Z,100620.41
2022-10-20T20:01:22.242Z,100609.06
2022-10-20T20:03:48.871Z,100615.22
2022-10-20T20:06:17.099Z,100615.03
2022-10-20T20:08:45.507Z,100616.31
2022-10-20T20:11:21.154Z,100604.50
2022-10-20T20:13:47.714Z,100614.06
2022-10-20T20:16:14.231Z,100614.25
2022-10-20T20:18:40.802Z,100615.88
2022-10-20T20:21:07.417Z,100614.44
2022-10-20T20:23:47.575Z,100614.25
2022-10-20T20:26:24.061Z,100614.44
2022-10-20T20:28:54.496Z,100622.69
2022-10-20T20:31:21.618Z,100613.47
2022-10-20T20:33:48.221Z,100625.81
2022-10-20T20:36:14.812Z,100614.19
2022-10-20T20:38:41.905Z,100610.16
2022-10-20T20:41:10.899Z,100613.72
2022-10-20T20:43:37.841Z,100617.28
2022-10-20T20:46:24.690Z,100611.94
2022-10-20T20:48:51.430Z,100605.94
2022-10-20T20:51:18.341Z,100607.72
2022-10-20T20:53:44.881Z,100609.84
2022-10-20T20:56:12.294Z,100607.44
2022-10-20T20:58:38.863Z,100615.53
2022-10-20T21:01:09.763Z,100608.75
2022-10-20T21:03:36.679Z,100617.19
2022-10-20T21:06:04.469Z,100616.72
2022-10-20T21:08:31.852Z,100606.88
2022-10-20T21:11:03.664Z,100609.47
2022-10-20T21:13:31.465Z,100604.84
2022-10-20T21:16:06.770Z,100601.75
2022-10-20T21:18:33.319Z,100609.41
2022-10-20T21:21:05.841Z,100596.94
2022-10-20T21:23:32.410Z,100604.28
2022-10-20T21:25:58.962Z,100601.06
2022-10-20T21:28:25.511Z,100604.50
2022-10-20T21:30:52.084Z,100601.47
2022-10-20T21:33:18.652Z,100594.19
2022-10-20T21:35:45.154Z,100594.84
2022-10-20T21:38:11.665Z,100595.84
2022-10-20T21:40:38.168Z,100595.69
2022-10-20T21:43:04.818Z,100593.94
2022-10-20T21:45:31.539Z,100593.94
2022-10-20T21:47:58.159Z,100590.03
2022-10-20T21:50:24.780Z,100586.19
2022-10-20T21:52:51.336Z,100576.22
2022-10-20T21:55:19.077Z,100581.69
2022-10-20T21:57:45.660Z,100582.00
2022-10-20T22:00:12.349Z,100587.16
2022-10-20T22:02:38.887Z,100588.81
2022-10-20T22:05:05.477Z,100586.25
2022-10-20T22:07:32.041Z,100590.28
2022-10-20T22:09:58.577Z,100588.66
2022-10-20T22:12:25.182Z,100594.59
2022-10-20T22:14:51.764Z,100600.28
2022-10-20T22:17:18.403Z,100603.00
2022-10-20T22:19:46.533Z,100607.06
2022-10-20T22:22:13.066Z,100607.19
2022-10-20T22:24:39.635Z,100612.03
2022-10-20T22:27:15.430Z,100607.22
2022-10-20T22:29:54.058Z,100612.69
2022-10-20T22:32:23.249Z,100615.25
2022-10-20T22:34:49.813Z,100608.47
2022-10-20T22:37:16.399Z,100604.00
2022-10-20T22:39:42.951Z,100590.28
2022-10-20T22:42:09.559Z,100578.97
2022-10-20T22:44:36.056Z,100570.88
2022-10-20T22:47:02.675Z,100572.84
2022-10-20T22:49:29.307Z,100578.00
2022-10-20T22:51:56.024Z,100568.47
2022-10-20T22:54:22.677Z,100551.03
2022-10-20T22:56:52.821Z,100562.97
2022-10-20T22:59:19.444Z,100560.25
2022-10-20T23:01:46.225Z,100560.09
2022-10-20T23:04:13.388Z,100566.22
2022-10-20T23:06:41.262Z,100570.59
2022-10-20T23:09:08.275Z,100581.72
2022-10-20T23:11:35.375Z,100578.78
2022-10-20T23:14:01.947Z,100584.59
2022-10-20T23:16:28.490Z,100579.44
2022-10-20T23:18:55.064Z,100587.50
2022-10-20T23:21:21.597Z,100582.31
2022-10-20T23:23:48.198Z,100586.22
2022-10-20T23:26:15.072Z,100582.19
2022-10-20T23:28:41.690Z,100586.00
2022-10-20T23:31:09.530Z,100582.31
2022-10-20T23:33:36.789Z,100578.78
2022-10-20T23:36:03.498Z,100571.34
2022-10-20T23:38:30.043Z,100563.28
2022-10-20T23:40:56.642Z,100560.06
2022-10-20T23:43:23.474Z,100563.59
2022-10-20T23:45:50.125Z,100562.13
2022-10-20T23:48:17.230Z,100557.94
2022-10-20T23:50:44.839Z,100555.56
2022-10-20T23:53:12.739Z,100556.97
2022-10-20T23:55:40.861Z,100557.97
2022-10-20T23:58:07.531Z,100550.53
